createdAt,value
2018-11-25T00:01:10.329Z,48.42
2018-11-25T00:03:40.324Z,46.53
2018-11-25T00:06:10.313Z,45.38
2018-11-25T00:08:40.344Z,42.30
2018-11-25T00:11:10.712Z,41.45
2018-11-25T00:13:40.579Z,40.03
2018-11-25T00:16:10.899Z,40.17
2018-11-25T00:18:40.715Z,39.73
2018-11-25T00:21:10.657Z,45.48
2018-11-25T00:23:40.684Z,44.30
2018-11-25T00:26:10.608Z,44.98
2018-11-25T00:28:40.688Z,39.88
2018-11-25T00:31:10.679Z,43.35
2018-11-25T00:33:40.591Z,38.28
2018-11-25T00:36:10.644Z,42.27
2018-11-25T00:38:40.965Z,40.52
2018-11-25T00:41:10.931Z,36.80
2018-11-25T00:43:41.170Z,36.83
2018-11-25T00:46:11.456Z,37.75
2018-11-25T00:48:41.485Z,38.00
2018-11-25T00:51:11.514Z,38.90
2018-11-25T00:53:41.502Z,35.83
2018-11-25T00:56:11.356Z,35.40
2018-11-25T00:58:41.558Z,36.23
2018-11-25T01:01:11.647Z,34.65
2018-11-25T01:03:41.759Z,35.48
2018-11-25T01:06:11.550Z,34.00
2018-11-25T01:08:41.502Z,33.98
2018-11-25T01:11:11.455Z,33.02
2018-11-25T01:13:41.405Z,31.75
2018-11-25T01:16:11.343Z,33.70
2018-11-25T01:18:41.309Z,34.55
2018-11-25T01:21:11.240Z,34.80
2018-11-25T01:23:41.065Z,35.68
2018-11-25T01:26:11.130Z,34.60
2018-11-25T01:28:41.033Z,37.03
2018-11-25T01:31:10.971Z,35.85
2018-11-25T01:33:40.893Z,37.35
2018-11-25T01:36:10.764Z,37.13
2018-11-25T01:38:40.976Z,35.25
2018-11-25T01:41:10.842Z,35.52
2018-11-25T01:43:40.755Z,35.30
2018-11-25T01:46:10.742Z,37.42
2018-11-25T01:48:40.576Z,31.87
2018-11-25T01:51:10.419Z,34.53
2018-11-25T01:53:41.462Z,36.50
2018-11-25T01:56:11.416Z,34.13
2018-11-25T01:58:41.607Z,35.55
2018-11-25T02:01:11.651Z,36.68
2018-11-25T02:03:41.480Z,40.52
2018-11-25T02:06:11.578Z,35.58
2018-11-25T02:08:41.536Z,36.15
2018-11-25T02:11:11.478Z,39.18
2018-11-25T02:13:42.549Z,38.80
2018-11-25T02:16:12.545Z,37.25
2018-11-25T02:18:42.545Z,39.30
2018-11-25T02:21:12.376Z,38.75
2018-11-25T02:23:42.329Z,36.23
2018-11-25T02:26:12.466Z,35.95
2018-11-25T02:28:42.462Z,35.17
2018-11-25T02:31:12.458Z,38.80
2018-11-25T02:33:42.441Z,37.45
2018-11-25T02:36:12.575Z,36.28
2018-11-25T02:38:42.607Z,37.10
2018-11-25T02:41:12.606Z,32.08
2018-11-25T02:43:42.575Z,40.48
2018-11-25T02:46:12.472Z,35.68
2018-11-25T02:48:42.714Z,39.08
2018-11-25T02:51:12.663Z,37.85
2018-11-25T02:53:42.630Z,37.40
2018-11-25T02:56:12.677Z,37.83
2018-11-25T02:58:42.608Z,38.73
2018-11-25T03:01:12.632Z,41.02
2018-11-25T03:03:42.613Z,40.67
2018-11-25T03:06:12.658Z,37.63
2018-11-25T03:08:42.536Z,36.30
2018-11-25T03:11:12.434Z,37.83
2018-11-25T03:13:43.349Z,39.33
2018-11-25T03:16:13.480Z,40.55
2018-11-25T03:18:43.552Z,40.73
2018-11-25T03:21:13.575Z,35.20
2018-11-25T03:23:43.460Z,39.35
2018-11-25T03:26:13.475Z,37.23
2018-11-25T03:28:43.272Z,36.38
2018-11-25T03:31:13.286Z,35.73
2018-11-25T03:33:43.278Z,39.85
2018-11-25T03:36:13.265Z,35.58
2018-11-25T03:38:43.139Z,35.68
2018-11-25T03:41:13.122Z,36.42
2018-11-25T03:43:43.156Z,37.90
2018-11-25T03:46:13.332Z,36.77
2018-11-25T03:48:58.432Z,34.00
2018-11-25T03:51:28.403Z,33.73
2018-11-25T03:53:58.347Z,37.28
2018-11-25T03:56:28.184Z,36.98
2018-11-25T03:58:58.147Z,34.75
2018-11-25T04:01:28.165Z,35.40
2018-11-25T04:03:58.050Z,39.33
2018-11-25T04:06:28.136Z,38.02
2018-11-25T04:08:58.077Z,37.30
2018-11-25T04:11:28.016Z,40.52
2018-11-25T04:13:57.988Z,38.90
2018-11-25T04:16:27.997Z,41.08
2018-11-25T04:18:58.242Z,39.10
2018-11-25T04:21:28.370Z,38.13
2018-11-25T04:23:58.329Z,38.33
2018-11-25T04:26:28.286Z,38.70
2018-11-25T04:28:58.137Z,40.48
2018-11-25T04:31:28.272Z,36.10
2018-11-25T04:33:58.173Z,37.08
2018-11-25T04:36:28.002Z,41.55
2018-11-25T04:38:57.960Z,36.80
2018-11-25T04:41:27.888Z,38.33
2018-11-25T04:43:58.004Z,37.35
2018-11-25T04:46:27.940Z,41.90
2018-11-25T04:48:57.741Z,38.55
2018-11-25T04:51:27.850Z,36.70
2018-11-25T04:53:57.796Z,38.60
2018-11-25T04:56:27.827Z,41.42
2018-11-25T04:58:57.787Z,38.40
2018-11-25T05:01:27.765Z,37.93
2018-11-25T05:03:57.801Z,36.10
2018-11-25T05:06:28.601Z,37.70
2018-11-25T05:08:58.616Z,35.73
2018-11-25T05:11:28.551Z,35.80
2018-11-25T05:13:58.521Z,40.92
2018-11-25T05:16:28.378Z,39.90
2018-11-25T05:18:58.223Z,40.15
2018-11-25T05:21:28.169Z,39.27
2018-11-25T05:23:57.975Z,40.33
2018-11-25T05:26:28.000Z,41.42
2018-11-25T05:28:57.967Z,42.93
2018-11-25T05:31:28.109Z,40.58
2018-11-25T05:33:58.078Z,47.65
2018-11-25T05:36:28.174Z,44.90
2018-11-25T05:38:58.186Z,41.92
2018-11-25T05:41:28.044Z,46.45
2018-11-25T05:43:57.969Z,44.90
2018-11-25T05:46:27.913Z,42.78
2018-11-25T05:48:57.957Z,43.52
2018-11-25T05:51:27.963Z,42.98
2018-11-25T05:53:57.959Z,48.23
2018-11-25T05:56:28.561Z,46.48
2018-11-25T05:58:58.533Z,46.30
2018-11-25T06:01:28.389Z,45.50
2018-11-25T06:03:58.286Z,46.75
2018-11-25T06:06:28.593Z,47.20
2018-11-25T06:08:58.424Z,47.80
2018-11-25T06:11:28.385Z,52.58
2018-11-25T06:13:58.332Z,50.25
2018-11-25T06:16:28.310Z,47.00
2018-11-25T06:18:58.240Z,54.13
2018-11-25T06:21:28.089Z,49.33
2018-11-25T06:23:58.044Z,47.55
2018-11-25T06:26:28.009Z,48.25
2018-11-25T06:28:57.978Z,48.15
2018-11-25T06:31:28.121Z,47.48
2018-11-25T06:33:57.683Z,52.43
2018-11-25T06:36:27.537Z,49.10
2018-11-25T06:38:57.432Z,46.65
2018-11-25T06:41:33.845Z,46.85
2018-11-25T06:43:57.464Z,52.17
2018-11-25T06:46:27.329Z,48.08
2018-11-25T06:48:57.193Z,50.20
2018-11-25T06:51:27.175Z,47.88
2018-11-25T06:53:57.177Z,47.35
2018-11-25T06:56:27.494Z,49.15
2018-11-25T06:58:57.150Z,48.65
2018-11-25T07:01:27.116Z,47.50
2018-11-25T07:03:58.088Z,47.25
2018-11-25T07:06:28.105Z,45.92
2018-11-25T07:08:58.082Z,45.45
2018-11-25T07:11:28.030Z,43.75
2018-11-25T07:13:58.997Z,42.95
2018-11-25T07:16:29.008Z,45.65
2018-11-25T07:18:59.064Z,44.83
2018-11-25T07:21:29.238Z,47.17
2018-11-25T07:23:59.314Z,44.85
2018-11-25T07:26:29.535Z,43.28
2018-11-25T07:28:59.539Z,43.20
2018-11-25T07:31:29.721Z,39.78
2018-11-25T07:33:59.676Z,39.48
2018-11-25T07:36:29.943Z,41.08
2018-11-25T07:38:59.883Z,41.70
2018-11-25T07:41:31.121Z,39.88
2018-11-25T07:44:01.121Z,37.98
2018-11-25T07:46:31.088Z,37.88
2018-11-25T07:49:01.006Z,39.63
2018-11-25T07:51:30.901Z,37.50
2018-11-25T07:54:00.832Z,35.95
2018-11-25T07:56:30.653Z,34.43
2018-11-25T07:59:00.556Z,34.98
2018-11-25T08:01:30.824Z,32.83
2018-11-25T08:04:00.923Z,36.08
2018-11-25T08:06:30.901Z,36.58
2018-11-25T08:09:00.783Z,36.68
2018-11-25T08:11:30.691Z,35.00
2018-11-25T08:14:00.541Z,34.50
2018-11-25T08:16:30.408Z,35.95
2018-11-25T08:19:00.625Z,34.95
2018-11-25T08:21:30.618Z,35.10
2018-11-25T08:24:00.613Z,32.10
2018-11-25T08:26:30.555Z,33.20
2018-11-25T08:29:00.798Z,36.88
2018-11-25T08:31:30.853Z,31.55
2018-11-25T08:34:00.835Z,30.77
2018-11-25T08:36:30.740Z,29.92
2018-11-25T08:39:00.682Z,27.98
2018-11-25T08:41:30.658Z,31.00
2018-11-25T08:44:00.629Z,32.60
2018-11-25T08:46:30.597Z,29.70
2018-11-25T08:49:00.500Z,30.10
2018-11-25T08:51:30.427Z,33.30
2018-11-25T08:54:00.709Z,38.78
2018-11-25T08:56:30.678Z,38.17
2018-11-25T08:59:00.552Z,32.10
2018-11-25T09:01:30.709Z,33.20
2018-11-25T09:04:00.903Z,33.02
2018-11-25T09:06:31.037Z,29.15
2018-11-25T09:09:01.278Z,32.42
2018-11-25T09:11:31.383Z,31.90
2018-11-25T09:14:01.333Z,32.15
2018-11-25T09:16:31.348Z,30.35
2018-11-25T09:19:01.232Z,31.20
2018-11-25T09:21:31.104Z,32.42
2018-11-25T09:24:01.294Z,30.25
2018-11-25T09:26:31.246Z,31.57
2018-11-25T09:29:01.137Z,29.85
2018-11-25T09:31:31.215Z,30.43
2018-11-25T09:34:01.302Z,31.95
2018-11-25T09:36:31.434Z,33.15
2018-11-25T09:39:01.428Z,33.10
2018-11-25T09:41:31.775Z,34.92
2018-11-25T09:44:01.770Z,34.80
2018-11-25T09:46:31.662Z,39.53
2018-11-25T09:49:01.608Z,35.17
2018-11-25T09:51:31.387Z,36.08
2018-11-25T09:54:01.966Z,38.63
2018-11-25T09:56:31.922Z,37.53
2018-11-25T09:59:02.003Z,38.35
2018-11-25T10:01:32.016Z,39.00
2018-11-25T10:04:02.068Z,39.30
2018-11-25T10:06:32.252Z,43.40
2018-11-25T10:09:02.431Z,46.00
2018-11-25T10:11:32.559Z,45.40
2018-11-25T10:14:02.494Z,45.90
2018-11-25T10:16:32.472Z,47.60
2018-11-25T10:19:02.357Z,47.62
2018-11-25T10:21:32.441Z,45.38
2018-11-25T10:24:02.191Z,44.80
2018-11-25T10:26:32.059Z,45.43
2018-11-25T10:29:02.089Z,40.33
2018-11-25T10:31:32.069Z,40.33
2018-11-25T10:34:01.886Z,35.65
2018-11-25T10:36:31.978Z,36.05
2018-11-25T10:39:02.219Z,33.10
2018-11-25T10:41:33.195Z,34.15
2018-11-25T10:44:03.370Z,33.78
2018-11-25T10:46:33.501Z,32.35
2018-11-25T10:49:03.570Z,33.90
2018-11-25T10:51:35.540Z,31.12
2018-11-25T10:54:05.642Z,31.97
2018-11-25T10:56:35.563Z,27.90
2018-11-25T10:59:06.343Z,27.42
2018-11-25T11:01:54.060Z,27.10
2018-11-25T11:04:29.147Z,25.17
2018-11-25T11:07:07.354Z,25.02
2018-11-25T11:09:37.109Z,23.77
2018-11-25T11:12:07.375Z,23.90
2018-11-25T11:14:37.736Z,24.18
2018-11-25T11:17:07.604Z,23.73
2018-11-25T11:19:37.417Z,20.97
2018-11-25T11:22:10.241Z,20.60
2018-11-25T11:24:44.073Z,22.32
2018-11-25T11:27:13.952Z,22.27
2018-11-25T11:29:43.873Z,21.50
2018-11-25T11:32:13.845Z,21.85
2018-11-25T11:34:44.216Z,20.57
2018-11-25T11:37:14.144Z,20.20
2018-11-25T11:39:44.282Z,20.43
2018-11-25T11:42:14.356Z,20.20
2018-11-25T11:44:44.278Z,23.05
2018-11-25T11:47:14.559Z,20.75
2018-11-25T11:49:44.616Z,21.55
2018-11-25T11:52:14.596Z,22.67
2018-11-25T11:54:44.781Z,21.52
2018-11-25T11:57:14.679Z,21.40
2018-11-25T11:59:45.291Z,20.65
2018-11-25T12:02:15.350Z,21.93
2018-11-25T12:04:45.802Z,23.10
2018-11-25T12:07:16.054Z,21.70
2018-11-25T12:09:46.061Z,24.12
2018-11-25T12:12:16.854Z,22.30
2018-11-25T12:14:50.181Z,23.22
2018-11-25T12:17:29.024Z,26.93
2018-11-25T12:19:58.992Z,24.10
2018-11-25T12:22:44.692Z,26.00
2018-11-25T12:25:18.003Z,26.82
2018-11-25T12:27:47.994Z,28.87
2018-11-25T12:30:18.452Z,30.35
2018-11-25T12:32:50.261Z,28.30
2018-11-25T12:35:20.658Z,27.13
2018-11-25T12:37:50.737Z,30.40
2018-11-25T12:40:23.896Z,31.05
2018-11-25T12:42:55.906Z,34.48
2018-11-25T12:45:26.346Z,37.53
2018-11-25T12:47:57.400Z,43.00
2018-11-25T12:50:28.029Z,36.70
2018-11-25T12:52:59.500Z,37.33
2018-11-25T12:55:32.082Z,36.60
2018-11-25T12:58:02.096Z,35.03
2018-11-25T13:00:39.179Z,35.10
2018-11-25T13:03:10.949Z,39.63
2018-11-25T13:05:45.987Z,35.38
2018-11-25T13:08:12.933Z,37.60
2018-11-25T13:10:44.182Z,39.33
2018-11-25T13:13:14.326Z,35.48
2018-11-25T13:15:44.469Z,35.88
2018-11-25T13:18:14.616Z,32.33
2018-11-25T13:20:44.684Z,31.37
2018-11-25T13:23:15.002Z,31.30
2018-11-25T13:25:45.126Z,38.35
2018-11-25T13:28:18.567Z,32.83
2018-11-25T13:30:49.557Z,39.53
2018-11-25T13:33:31.995Z,30.05
2018-11-25T13:36:02.135Z,31.27
2018-11-25T13:38:32.512Z,33.20
2018-11-25T13:41:02.702Z,32.00
2018-11-25T13:43:32.767Z,32.03
2018-11-25T13:46:02.830Z,32.80
2018-11-25T13:48:32.955Z,33.38
2018-11-25T13:54:01.064Z,32.42
2018-11-25T13:56:31.227Z,30.08
2018-11-25T13:59:21.638Z,32.50
2018-11-25T14:05:01.861Z,32.55
2018-11-25T14:07:32.238Z,36.60
2018-11-25T14:10:02.331Z,35.28
2018-11-25T14:12:33.096Z,34.98
2018-11-25T14:18:29.009Z,37.63
2018-11-25T14:20:59.044Z,38.65
2018-11-25T14:23:29.018Z,36.70
2018-11-25T14:26:02.201Z,40.45
2018-11-25T14:28:32.289Z,39.65
2018-11-25T14:31:02.427Z,37.78
2018-11-25T14:33:32.719Z,37.53
2018-11-25T14:36:02.856Z,42.48
2018-11-25T14:38:34.994Z,38.83
2018-11-25T14:41:05.241Z,40.65
2018-11-25T14:43:36.204Z,41.80
2018-11-25T14:46:06.345Z,42.55
2018-11-25T14:48:36.517Z,44.70
2018-11-25T14:51:07.807Z,43.20
2018-11-25T14:53:39.064Z,43.25
2018-11-25T14:56:09.205Z,40.03
2018-11-25T14:58:39.268Z,38.83
2018-11-25T15:01:09.215Z,39.05
2018-11-25T15:03:39.310Z,41.70
2018-11-25T15:06:09.432Z,42.58
2018-11-25T15:08:39.474Z,42.03
2018-11-25T15:14:09.981Z,44.63
2018-11-25T15:16:42.214Z,50.95
2018-11-25T15:19:12.309Z,46.80
2018-11-25T15:21:42.707Z,49.30
2018-11-25T15:27:22.934Z,47.08
2018-11-25T15:29:53.135Z,50.92
2018-11-25T15:32:24.999Z,47.15
2018-11-25T15:34:55.079Z,48.13
2018-11-25T15:37:26.558Z,43.75
2018-11-25T15:39:56.885Z,40.35
2018-11-25T15:42:27.628Z,39.10
2018-11-25T15:44:59.362Z,40.98
2018-11-25T15:47:30.334Z,41.00
2018-11-25T15:50:00.598Z,41.60
2018-11-25T15:52:30.689Z,39.15
2018-11-25T15:55:00.804Z,39.95
2018-11-25T15:57:30.869Z,37.50
2018-11-25T16:00:00.873Z,41.95
2018-11-25T16:02:42.049Z,39.27
2018-11-25T16:06:29.666Z,52.80
2018-11-25T16:09:00.006Z,51.77
2018-11-25T16:11:30.423Z,42.10
2018-11-25T16:14:00.272Z,38.80
2018-11-25T16:16:30.877Z,34.63
2018-11-25T16:19:00.832Z,39.45
2018-11-25T16:21:30.859Z,36.58
2018-11-25T16:24:00.798Z,33.00
2018-11-25T16:26:34.464Z,31.52
2018-11-25T16:29:17.705Z,30.60
2018-11-25T16:31:47.800Z,30.77
2018-11-25T16:34:18.416Z,29.35
2018-11-25T16:36:48.461Z,29.92
2018-11-25T16:39:18.312Z,31.00
2018-11-25T16:41:48.260Z,30.02
2018-11-25T16:44:18.935Z,30.75
2018-11-25T16:46:48.933Z,31.45
2018-11-25T16:49:18.984Z,30.85
2018-11-25T16:51:48.932Z,29.50
2018-11-25T16:54:19.011Z,31.93
2018-11-25T16:56:49.069Z,31.97
2018-11-25T16:59:19.079Z,30.08
2018-11-25T17:01:49.106Z,29.92
2018-11-25T17:04:19.119Z,30.00
2018-11-25T17:06:53.338Z,31.73
2018-11-25T17:09:23.486Z,30.95
2018-11-25T17:11:53.465Z,32.03
2018-11-25T17:14:23.531Z,32.35
2018-11-25T17:16:53.538Z,31.07
2018-11-25T17:19:23.432Z,37.60
2018-11-25T17:21:53.495Z,31.23
2018-11-25T17:24:23.542Z,32.88
2018-11-25T17:26:53.374Z,34.85
2018-11-25T17:29:23.286Z,31.85
2018-11-25T17:31:53.328Z,34.60
2018-11-25T17:34:23.388Z,34.50
2018-11-25T17:36:53.379Z,33.10
2018-11-25T17:39:23.671Z,31.82
2018-11-25T17:41:53.538Z,32.00
2018-11-25T17:44:23.436Z,31.65
2018-11-25T17:46:53.459Z,32.70
2018-11-25T17:49:23.449Z,32.48
2018-11-25T17:51:53.489Z,30.68
2018-11-25T17:54:23.573Z,33.30
2018-11-25T17:56:53.600Z,31.57
2018-11-25T17:59:23.676Z,33.80
2018-11-25T18:01:53.725Z,31.85
2018-11-25T18:04:24.036Z,32.63
2018-11-25T18:06:53.978Z,35.23
2018-11-25T18:09:24.107Z,34.00
2018-11-25T18:11:54.092Z,34.75
2018-11-25T18:14:24.061Z,32.20
2018-11-25T18:16:54.092Z,33.85
2018-11-25T18:19:26.001Z,34.65
2018-11-25T18:22:01.000Z,33.85
2018-11-25T18:24:30.987Z,34.50
2018-11-25T18:27:03.233Z,32.78
2018-11-25T18:29:33.200Z,36.80
2018-11-25T18:32:03.217Z,36.33
2018-11-25T18:34:33.406Z,37.60
2018-11-25T18:37:03.174Z,37.15
2018-11-25T18:39:33.127Z,37.98
2018-11-25T18:42:03.141Z,34.98
2018-11-25T18:44:33.026Z,35.40
2018-11-25T18:47:03.048Z,35.17
2018-11-25T18:49:34.054Z,35.83
2018-11-25T18:52:05.332Z,36.42
2018-11-25T18:54:34.152Z,34.80
2018-11-25T18:57:04.345Z,40.05
2018-11-25T18:59:34.211Z,39.92
2018-11-25T19:02:09.821Z,38.63
2018-11-25T19:04:39.918Z,36.42
2018-11-25T19:07:09.998Z,41.15
2018-11-25T19:09:39.821Z,41.68
2018-11-25T19:12:09.659Z,41.53
2018-11-25T19:14:39.713Z,37.55
2018-11-25T19:17:09.726Z,40.83
2018-11-25T19:19:39.654Z,42.40
2018-11-25T19:22:09.151Z,43.65
2018-11-25T19:24:39.371Z,46.25
2018-11-25T19:27:09.468Z,42.30
2018-11-25T19:29:39.459Z,43.28
2018-11-25T19:32:09.405Z,47.62
2018-11-25T19:34:39.427Z,43.87
2018-11-25T19:37:09.409Z,41.50
2018-11-25T19:39:40.201Z,45.78
2018-11-25T19:42:10.171Z,47.03
2018-11-25T19:44:40.334Z,46.10
2018-11-25T19:47:10.198Z,45.92
2018-11-25T19:49:40.143Z,48.68
2018-11-25T19:52:09.991Z,46.45
2018-11-25T19:54:40.048Z,43.83
2018-11-25T19:57:10.029Z,47.95
2018-11-25T19:59:40.011Z,48.78
2018-11-25T20:02:09.807Z,47.53
2018-11-25T20:04:39.843Z,48.00
2018-11-25T20:07:10.048Z,48.90
2018-11-25T20:09:40.242Z,47.10
2018-11-25T20:12:10.273Z,48.68
2018-11-25T20:14:40.207Z,49.03
2018-11-25T20:17:15.209Z,49.65
2018-11-25T20:19:45.296Z,49.40
2018-11-25T20:22:20.291Z,49.23
2018-11-25T20:24:50.315Z,51.83
2018-11-25T20:27:25.423Z,51.77
2018-11-25T20:29:55.493Z,49.50
2018-11-25T20:32:30.862Z,51.28
2018-11-25T20:35:00.895Z,48.02
2018-11-25T20:37:31.329Z,50.10
2018-11-25T20:40:01.310Z,52.17
2018-11-25T20:42:31.258Z,54.05
2018-11-25T20:45:01.267Z,50.17
2018-11-25T20:47:31.418Z,50.35
2018-11-25T20:50:01.342Z,51.25
2018-11-25T20:52:36.473Z,50.80
2018-11-25T20:55:07.759Z,49.48
2018-11-25T20:57:37.831Z,51.55
2018-11-25T21:00:15.070Z,46.98
2018-11-25T21:02:43.888Z,52.15
2018-11-25T21:05:15.653Z,53.05
2018-11-25T21:07:45.789Z,49.80
2018-11-25T21:10:18.244Z,49.42
2018-11-25T21:12:50.145Z,49.48
2018-11-25T21:15:20.113Z,46.48
2018-11-25T21:17:50.182Z,52.08
2018-11-25T21:20:26.409Z,49.53
2018-11-25T21:22:58.417Z,49.10
2018-11-25T21:25:28.332Z,48.45
2018-11-25T21:27:58.327Z,47.90
2018-11-25T21:30:28.454Z,47.70
2018-11-25T21:32:59.181Z,47.95
2018-11-25T21:35:29.184Z,48.25
2018-11-25T21:37:59.507Z,51.15
2018-11-25T21:40:29.567Z,53.58
2018-11-25T21:42:59.666Z,63.87
2018-11-25T21:45:30.323Z,65.00
2018-11-25T21:48:01.486Z,63.23
2018-11-25T21:50:31.431Z,55.28
2018-11-25T21:53:01.404Z,58.00
2018-11-25T21:55:31.402Z,49.75
2018-11-25T21:58:01.529Z,48.23
2018-11-25T22:00:31.602Z,51.23
2018-11-25T22:03:01.526Z,50.08
2018-11-25T22:05:31.438Z,50.52
2018-11-25T22:08:17.216Z,49.73
2018-11-25T22:10:47.013Z,48.73
2018-11-25T22:13:17.052Z,49.18
2018-11-25T22:15:46.970Z,46.92
2018-11-25T22:18:16.872Z,50.88
2018-11-25T22:20:47.001Z,50.45
2018-11-25T22:23:17.015Z,49.58
2018-11-25T22:25:46.982Z,50.78
2018-11-25T22:28:17.946Z,49.27
2018-11-25T22:30:48.007Z,47.10
2018-11-25T22:33:18.076Z,47.15
2018-11-25T22:35:48.062Z,52.08
2018-11-25T22:38:17.872Z,49.42
2018-11-25T22:40:47.891Z,48.23
2018-11-25T22:43:17.906Z,47.90
2018-11-25T22:45:47.884Z,50.40
2018-11-25T22:48:17.737Z,48.50
2018-11-25T22:50:47.962Z,47.58
2018-11-25T22:53:18.024Z,48.30
2018-11-25T22:55:47.921Z,47.05
2018-11-25T22:58:18.060Z,49.85
2018-11-25T23:00:53.087Z,47.35
2018-11-25T23:03:23.219Z,56.15
2018-11-25T23:06:09.584Z,51.75
2018-11-25T23:08:39.485Z,46.23
2018-11-25T23:11:09.329Z,48.00
2018-11-25T23:13:40.079Z,45.05
2018-11-25T23:16:10.167Z,42.62
2018-11-25T23:18:40.149Z,48.92
2018-11-25T23:21:10.140Z,51.50
2018-11-25T23:23:40.177Z,47.03
2018-11-25T23:26:10.230Z,45.85
2018-11-25T23:28:40.233Z,47.43
2018-11-25T23:31:10.228Z,44.27
2018-11-25T23:33:40.222Z,43.10
2018-11-25T23:36:10.240Z,42.43
2018-11-25T23:38:40.208Z,42.70
2018-11-25T23:41:10.124Z,40.43
2018-11-25T23:43:40.117Z,44.25
2018-11-25T23:46:10.082Z,39.40
2018-11-25T23:48:40.248Z,40.15
2018-11-25T23:51:10.289Z,41.37
2018-11-25T23:53:40.276Z,42.05
2018-11-25T23:56:10.340Z,40.45
2018-11-25T23:58:40.233Z,40.67
